createdAt,value
2023-05-02T00:00:10.884Z,92.0116
2023-05-02T00:01:12.871Z,92.0908
2023-05-02T00:02:15.022Z,92.2782
2023-05-02T00:03:17.503Z,92.4847
2023-05-02T00:04:19.790Z,92.6105
2023-05-02T00:05:22.228Z,92.7319
2023-05-02T00:06:24.284Z,92.6352
2023-05-02T00:07:26.283Z,92.5424
2023-05-02T00:08:28.319Z,92.5960
2023-05-02T00:09:30.349Z,92.8073
2023-05-02T00:10:32.357Z,93.0403
2023-05-02T00:11:34.395Z,93.0889
2023-05-02T00:12:36.425Z,93.3105
2023-05-02T00:13:38.468Z,93.5044
2023-05-02T00:14:40.477Z,93.6363
2023-05-02T00:15:42.480Z,93.7112
2023-05-02T00:16:44.518Z,93.6589
2023-05-02T00:17:46.535Z,93.7623
2023-05-02T00:18:48.537Z,93.9269
2023-05-02T00:19:50.587Z,94.0467
2023-05-02T00:20:52.608Z,94.1842
2023-05-02T00:21:54.631Z,94.3080
2023-05-02T00:22:56.681Z,94.3934
2023-05-02T00:23:58.707Z,94.4362
2023-05-02T00:25:00.755Z,94.5318
2023-05-02T00:26:02.793Z,94.4571
2023-05-02T00:27:04.829Z,94.6067
2023-05-02T00:28:06.869Z,94.6871
2023-05-02T00:29:08.906Z,94.6488
2023-05-02T00:30:11.710Z,94.7354
2023-05-02T00:31:13.805Z,94.7853
2023-05-02T00:32:15.787Z,94.8663
2023-05-02T00:33:17.841Z,94.9126
2023-05-02T00:34:19.854Z,94.8073
2023-05-02T00:35:21.875Z,94.7242
2023-05-02T00:36:23.895Z,94.9538
2023-05-02T00:37:25.912Z,94.9830
2023-05-02T00:38:27.987Z,94.9850
2023-05-02T00:39:30.048Z,94.9256
2023-05-02T00:40:32.092Z,94.6460
2023-05-02T00:41:34.126Z,94.6543
2023-05-02T00:42:36.456Z,94.8170
2023-05-02T00:43:38.650Z,94.9607
2023-05-02T00:44:40.710Z,94.8288
2023-05-02T00:45:42.763Z,94.7153
2023-05-02T00:46:44.841Z,94.6283
2023-05-02T00:47:46.889Z,94.5835
2023-05-02T00:48:48.933Z,94.6739
2023-05-02T00:49:50.956Z,94.8160
2023-05-02T00:50:52.978Z,94.9178
2023-05-02T00:51:55.052Z,94.8547
2023-05-02T00:52:57.045Z,94.6498
2023-05-02T00:53:59.063Z,94.5272
2023-05-02T00:55:01.099Z,94.4766
2023-05-02T00:56:03.132Z,94.4893
2023-05-02T00:57:05.183Z,94.5153
2023-05-02T00:58:07.231Z,94.5792
2023-05-02T00:59:09.267Z,94.5888
2023-05-02T01:00:11.350Z,94.6071
2023-05-02T01:01:13.413Z,94.5618
2023-05-02T01:02:15.472Z,94.4897
2023-05-02T01:03:17.721Z,94.5591
2023-05-02T01:04:19.875Z,94.5687
2023-05-02T01:05:21.887Z,94.5717
2023-05-02T01:06:23.940Z,94.6721
2023-05-02T01:07:25.954Z,94.7158
2023-05-02T01:08:27.976Z,94.7303
2023-05-02T01:09:30.000Z,94.7531
2023-05-02T01:10:32.050Z,94.8325
2023-05-02T01:11:34.087Z,94.9029
2023-05-02T01:12:36.122Z,94.8595
2023-05-02T01:13:38.181Z,94.5254
2023-05-02T01:14:40.278Z,94.6067
2023-05-02T01:15:42.390Z,94.6063
2023-05-02T01:16:44.656Z,94.5416
2023-05-02T01:17:46.913Z,94.7473
2023-05-02T01:18:48.964Z,94.9495
2023-05-02T01:19:51.090Z,95.0176
2023-05-02T01:20:53.136Z,95.1500
2023-05-02T01:21:55.114Z,95.2734
2023-05-02T01:22:57.155Z,95.3942
2023-05-02T01:23:59.187Z,95.4786
2023-05-02T01:25:01.555Z,95.4722
2023-05-02T01:26:03.583Z,95.4109
2023-05-02T01:27:05.635Z,95.3351
2023-05-02T01:28:07.697Z,95.4012
2023-05-02T01:29:09.746Z,95.4886
2023-05-02T01:30:11.761Z,95.5893
2023-05-02T01:31:13.807Z,95.7031
2023-05-02T01:32:15.820Z,95.6364
2023-05-02T01:33:17.879Z,95.4052
2023-05-02T01:34:19.927Z,95.4568
2023-05-02T01:35:21.975Z,95.5629
2023-05-02T01:36:23.982Z,95.6392
2023-05-02T01:37:26.002Z,95.5704
2023-05-02T01:38:28.010Z,95.5614
2023-05-02T01:39:30.053Z,95.6804
2023-05-02T01:40:32.126Z,95.7364
2023-05-02T01:41:34.167Z,95.7904
2023-05-02T01:42:36.910Z,95.7513
2023-05-02T01:43:38.972Z,95.7446
2023-05-02T01:44:40.994Z,95.6804
2023-05-02T01:45:43.001Z,95.6318
2023-05-02T01:46:45.060Z,95.6380
2023-05-02T01:47:47.140Z,95.5182
2023-05-02T01:48:49.143Z,95.5324
2023-05-02T01:49:51.158Z,95.3412
2023-05-02T01:50:53.245Z,95.4073
2023-05-02T01:51:55.239Z,95.4086
2023-05-02T01:52:57.260Z,95.1095
2023-05-02T01:53:59.307Z,95.2585
2023-05-02T01:55:01.336Z,95.1603
2023-05-02T01:56:03.381Z,95.3829
2023-05-02T01:57:05.406Z,95.6915
2023-05-02T01:58:07.438Z,95.8756
2023-05-02T01:59:09.441Z,95.8861
2023-05-02T02:00:11.470Z,95.9747
2023-05-02T02:01:13.517Z,95.9771
2023-05-02T02:02:15.531Z,96.0320
2023-05-02T02:03:17.635Z,95.9387
2023-05-02T02:04:19.752Z,95.9591
2023-05-02T02:05:21.602Z,96.0221
2023-05-02T02:06:23.672Z,96.1094
2023-05-02T02:07:25.715Z,96.0966
2023-05-02T02:08:27.672Z,96.1848
2023-05-02T02:09:29.704Z,96.2929
2023-05-02T02:10:31.725Z,96.2988
2023-05-02T02:11:33.716Z,96.2644
2023-05-02T02:12:36.072Z,96.3650
2023-05-02T02:13:38.106Z,96.3586
2023-05-02T02:14:40.134Z,96.3974
2023-05-02T02:15:42.165Z,96.5260
2023-05-02T02:16:44.246Z,96.2035
2023-05-02T02:17:46.428Z,95.8278
2023-05-02T02:18:48.468Z,95.7445
2023-05-02T02:19:50.530Z,95.5481
2023-05-02T02:20:52.552Z,95.2142
2023-05-02T02:21:54.601Z,95.0107
2023-05-02T02:22:56.630Z,95.0683
2023-05-02T02:23:58.661Z,95.2866
2023-05-02T02:25:00.705Z,95.1269
2023-05-02T02:26:02.785Z,95.0857
2023-05-02T02:27:04.843Z,94.8268
2023-05-02T02:28:06.871Z,94.7405
2023-05-02T02:29:08.865Z,94.6488
2023-05-02T02:30:11.238Z,94.7032
2023-05-02T02:31:13.331Z,94.8735
2023-05-02T02:32:15.359Z,94.9491
2023-05-02T02:33:17.376Z,95.0758
2023-05-02T02:34:19.440Z,95.3100
2023-05-02T02:35:21.693Z,95.3817
2023-05-02T02:36:23.708Z,95.3450
2023-05-02T02:37:25.752Z,95.3228
2023-05-02T02:38:27.761Z,95.0039
2023-05-02T02:39:29.790Z,95.0108
2023-05-02T02:40:31.845Z,94.9126
2023-05-02T02:41:33.880Z,94.7688
2023-05-02T02:42:35.926Z,94.7736
2023-05-02T02:43:37.931Z,94.6435
2023-05-02T02:44:40.213Z,94.6551
2023-05-02T02:45:42.242Z,94.8060
2023-05-02T02:46:44.359Z,94.6277
2023-05-02T02:47:46.430Z,94.0773
2023-05-02T02:48:48.396Z,94.0282
2023-05-02T02:49:50.444Z,94.0681
2023-05-02T02:50:52.444Z,93.9109
2023-05-02T02:51:54.451Z,93.6963
2023-05-02T02:52:56.536Z,93.3378
2023-05-02T02:53:58.568Z,93.6791
2023-05-02T02:55:00.628Z,93.4761
2023-05-02T02:56:02.617Z,92.5663
2023-05-02T02:57:04.652Z,92.7214
2023-05-02T02:58:06.664Z,92.8306
2023-05-02T02:59:08.702Z,93.1032
2023-05-02T03:00:10.738Z,92.7934
2023-05-02T03:01:12.766Z,92.8864
2023-05-02T03:02:14.772Z,92.9126
2023-05-02T03:03:16.885Z,92.5161
2023-05-02T03:04:18.940Z,92.5076
2023-05-02T03:05:19.070Z,92.5397
2023-05-02T03:06:21.227Z,92.7602
2023-05-02T03:07:23.268Z,92.5339
2023-05-02T03:08:25.302Z,92.6533
2023-05-02T03:09:27.371Z,92.2127
2023-05-02T03:10:29.367Z,92.3520
2023-05-02T03:11:31.394Z,91.9488
2023-05-02T03:12:33.429Z,91.4795
2023-05-02T03:13:35.421Z,92.0971
2023-05-02T03:14:37.455Z,92.6253
2023-05-02T03:15:40.005Z,92.7560
2023-05-02T03:16:42.115Z,92.8076
2023-05-02T03:17:44.361Z,92.7418
2023-05-02T03:18:46.383Z,92.3051
2023-05-02T03:19:48.518Z,92.4571
2023-05-02T03:20:50.513Z,92.3761
2023-05-02T03:21:52.551Z,91.8652
2023-05-02T03:22:54.607Z,91.9206
2023-05-02T03:23:56.629Z,91.9723
2023-05-02T03:24:58.661Z,92.2302
2023-05-02T03:26:00.654Z,92.3328
2023-05-02T03:27:02.658Z,91.4787
2023-05-02T03:28:04.718Z,91.8328
2023-05-02T03:29:06.734Z,91.9099
2023-05-02T03:30:08.751Z,91.5637
2023-05-02T03:31:10.787Z,91.6595
2023-05-02T03:32:13.136Z,91.7407
2023-05-02T03:33:15.426Z,91.6970
2023-05-02T03:34:17.411Z,91.2288
2023-05-02T03:35:19.672Z,91.2814
2023-05-02T03:36:21.691Z,91.5215
2023-05-02T03:37:23.740Z,91.2686
2023-05-02T03:38:25.776Z,91.4035
2023-05-02T03:39:27.799Z,91.2312
2023-05-02T03:40:29.829Z,91.1087
2023-05-02T03:41:31.913Z,91.1149
2023-05-02T03:42:33.958Z,91.0787
2023-05-02T03:43:36.045Z,90.9656
2023-05-02T03:44:38.025Z,90.8152
2023-05-02T03:45:40.041Z,90.9440
2023-05-02T03:46:42.098Z,91.1027
2023-05-02T03:47:44.434Z,90.9093
2023-05-02T03:48:46.451Z,90.5793
2023-05-02T03:49:48.505Z,90.8561
2023-05-02T03:50:50.548Z,91.2928
2023-05-02T03:51:52.571Z,91.0594
2023-05-02T03:52:54.666Z,91.1108
2023-05-02T03:53:56.707Z,91.0902
2023-05-02T03:54:58.757Z,91.3492
2023-05-02T03:56:00.797Z,91.2851
2023-05-02T03:57:02.841Z,91.4283
2023-05-02T03:58:04.873Z,91.4843
2023-05-02T03:59:06.906Z,91.2004
2023-05-02T04:00:07.062Z,91.2611
2023-05-02T04:01:09.085Z,91.4299
2023-05-02T04:02:11.152Z,91.6528
2023-05-02T04:03:13.263Z,91.2776
2023-05-02T04:04:15.310Z,91.1775
2023-05-02T04:05:17.344Z,91.1456
2023-05-02T04:06:19.441Z,91.3683
2023-05-02T04:07:21.459Z,91.5412
2023-05-02T04:08:23.471Z,91.8305
2023-05-02T04:09:25.645Z,91.9770
2023-05-02T04:10:27.720Z,92.0807
2023-05-02T04:11:29.751Z,92.1880
2023-05-02T04:12:31.835Z,92.2113
2023-05-02T04:13:33.856Z,92.1157
2023-05-02T04:14:35.881Z,91.8176
2023-05-02T04:15:37.931Z,91.6671
2023-05-02T04:16:39.960Z,91.7266
2023-05-02T04:17:42.009Z,91.6584
2023-05-02T04:18:44.035Z,92.0185
2023-05-02T04:19:46.116Z,92.0557
2023-05-02T04:20:48.148Z,91.8728
2023-05-02T04:21:50.212Z,91.6033
2023-05-02T04:22:50.413Z,91.8514
2023-05-02T04:23:52.443Z,91.9303
2023-05-02T04:24:54.505Z,91.9715
2023-05-02T04:25:56.540Z,91.7401
2023-05-02T04:26:58.590Z,91.3969
2023-05-02T04:28:00.606Z,91.0460
2023-05-02T04:29:02.630Z,91.0172
2023-05-02T04:30:04.667Z,90.9273
2023-05-02T04:31:06.740Z,90.6510
2023-05-02T04:32:08.732Z,90.7322
2023-05-02T04:33:10.832Z,90.8943
2023-05-02T04:34:12.822Z,90.7967
2023-05-02T04:35:14.852Z,91.1992
2023-05-02T04:36:16.880Z,91.6016
2023-05-02T04:37:18.948Z,91.6940
2023-05-02T04:38:21.048Z,91.8262
2023-05-02T04:39:23.158Z,92.0870
2023-05-02T04:40:25.171Z,92.4496
2023-05-02T04:41:27.206Z,92.6328
2023-05-02T04:42:29.219Z,92.2446
2023-05-02T04:43:31.249Z,92.0089
2023-05-02T04:44:33.273Z,92.0646
2023-05-02T04:45:35.299Z,92.0093
2023-05-02T04:46:37.384Z,92.3413
2023-05-02T04:47:39.469Z,92.5017
2023-05-02T04:48:41.491Z,92.6828
2023-05-02T04:49:43.518Z,92.8653
2023-05-02T04:50:45.583Z,92.8181
2023-05-02T04:51:47.579Z,92.6677
2023-05-02T04:52:49.614Z,92.3047
2023-05-02T04:53:51.712Z,92.2462
2023-05-02T04:54:53.778Z,92.0325
2023-05-02T04:55:55.884Z,91.5654
2023-05-02T04:56:57.898Z,91.6963
2023-05-02T04:57:59.933Z,91.6635
2023-05-02T04:59:02.004Z,91.8492
2023-05-02T05:00:04.289Z,91.9869
2023-05-02T05:01:06.288Z,92.1435
2023-05-02T05:02:08.481Z,92.2305
2023-05-02T05:03:10.740Z,92.3737
2023-05-02T05:04:12.841Z,92.4404
2023-05-02T05:05:14.980Z,92.6427
2023-05-02T05:06:17.090Z,92.6092
2023-05-02T05:07:19.098Z,92.2267
2023-05-02T05:08:21.131Z,92.1455
2023-05-02T05:09:23.169Z,92.7777
2023-05-02T05:10:25.215Z,93.2022
2023-05-02T05:11:27.257Z,93.4840
2023-05-02T05:12:29.284Z,93.3677
2023-05-02T05:13:31.324Z,92.6295
2023-05-02T05:14:33.354Z,92.3091
2023-05-02T05:15:35.451Z,92.0226
2023-05-02T05:16:37.561Z,91.7700
2023-05-02T05:17:39.737Z,91.4699
2023-05-02T05:18:41.752Z,91.0631
2023-05-02T05:19:43.774Z,90.9588
2023-05-02T05:20:46.119Z,90.7800
2023-05-02T05:21:48.378Z,90.4609
2023-05-02T05:22:50.460Z,90.2846
2023-05-02T05:23:52.480Z,90.1859
2023-05-02T05:24:54.504Z,90.1190
2023-05-02T05:25:56.530Z,90.4584
2023-05-02T05:26:58.560Z,91.4320
2023-05-02T05:28:00.604Z,91.4269
2023-05-02T05:29:02.659Z,91.5741
2023-05-02T05:30:04.707Z,91.9123
2023-05-02T05:31:06.780Z,92.0894
2023-05-02T05:32:08.812Z,92.1132
2023-05-02T05:33:11.266Z,92.1130
2023-05-02T05:34:13.371Z,91.9612
2023-05-02T05:35:15.429Z,91.8583
2023-05-02T05:36:17.484Z,91.6682
2023-05-02T05:37:19.563Z,91.6156
2023-05-02T05:38:21.612Z,91.6649
2023-05-02T05:39:23.664Z,91.7004
2023-05-02T05:40:25.715Z,91.6697
2023-05-02T05:41:27.769Z,91.6562
2023-05-02T05:42:29.834Z,91.8342
2023-05-02T05:43:31.906Z,91.7607
2023-05-02T05:44:33.989Z,91.7118
2023-05-02T05:45:36.084Z,91.7995
2023-05-02T05:46:38.249Z,91.7940
2023-05-02T05:47:40.432Z,91.6633
2023-05-02T05:48:42.597Z,91.4192
2023-05-02T05:49:44.638Z,91.2143
2023-05-02T05:50:46.715Z,91.0049
2023-05-02T05:51:48.795Z,90.8811
2023-05-02T05:52:50.867Z,90.8532
2023-05-02T05:53:52.943Z,91.1273
2023-05-02T05:54:55.029Z,91.3843
2023-05-02T05:55:57.095Z,91.5396
2023-05-02T05:56:59.177Z,91.3304
2023-05-02T05:58:01.253Z,91.4549
2023-05-02T05:59:03.341Z,91.1454
2023-05-02T06:00:05.455Z,90.8550
2023-05-02T06:01:07.770Z,90.7261
2023-05-02T06:02:09.864Z,90.6605
2023-05-02T06:03:12.326Z,90.7592
2023-05-02T06:04:14.553Z,90.3603
2023-05-02T06:05:16.641Z,89.9921
2023-05-02T06:06:18.701Z,89.8429
2023-05-02T06:07:20.762Z,89.6610
2023-05-02T06:08:23.132Z,89.2620
2023-05-02T06:09:25.181Z,89.4598
2023-05-02T06:10:27.234Z,89.8627
2023-05-02T06:11:29.329Z,89.9465
2023-05-02T06:12:31.365Z,89.7053
2023-05-02T06:13:33.418Z,89.2284
2023-05-02T06:14:35.569Z,88.7258
2023-05-02T06:15:37.662Z,88.5981
2023-05-02T06:16:39.773Z,88.3830
2023-05-02T06:17:41.798Z,87.9552
2023-05-02T06:18:43.860Z,87.7005
2023-05-02T06:19:45.914Z,88.2295
2023-05-02T06:20:47.973Z,87.8698
2023-05-02T06:21:50.035Z,87.1237
2023-05-02T06:22:52.119Z,87.7801
2023-05-02T06:23:54.246Z,87.5113
2023-05-02T06:24:56.284Z,86.6245
2023-05-02T06:25:58.356Z,86.4804
2023-05-02T06:27:00.428Z,86.9102
2023-05-02T06:28:02.487Z,86.8571
2023-05-02T06:29:04.553Z,85.8378
2023-05-02T06:30:06.672Z,85.8705
2023-05-02T06:31:08.758Z,86.8549
2023-05-02T06:32:10.848Z,87.5491
2023-05-02T06:33:12.951Z,87.1881
2023-05-02T06:34:15.030Z,87.4454
2023-05-02T06:35:17.110Z,87.5901
2023-05-02T06:36:19.194Z,87.5693
2023-05-02T06:37:21.243Z,87.2381
2023-05-02T06:38:23.320Z,87.0536
2023-05-02T06:39:25.397Z,87.4150
2023-05-02T06:40:27.536Z,87.3521
2023-05-02T06:41:29.608Z,87.1655
2023-05-02T06:42:31.665Z,86.8041
2023-05-02T06:43:33.732Z,86.1291
2023-05-02T06:44:35.794Z,85.5724
2023-05-02T06:45:37.865Z,85.4746
2023-05-02T06:46:39.987Z,84.5738
2023-05-02T06:47:42.114Z,83.7175
2023-05-02T06:48:44.137Z,82.9713
2023-05-02T06:49:46.216Z,83.4538
2023-05-02T06:50:48.327Z,82.6631
2023-05-02T06:51:50.402Z,81.2268
2023-05-02T06:52:52.460Z,80.9875
2023-05-02T06:53:54.552Z,81.5552
2023-05-02T06:54:56.598Z,81.1504
2023-05-02T06:55:58.700Z,81.9583
2023-05-02T06:57:00.761Z,81.2778
2023-05-02T06:58:02.807Z,81.9703
2023-05-02T06:59:04.858Z,84.0769
2023-05-02T07:00:06.980Z,82.4077
2023-05-02T07:01:09.190Z,80.9703
2023-05-02T07:02:11.274Z,80.5949
2023-05-02T07:03:13.383Z,81.5846
2023-05-02T07:04:15.484Z,84.2002
2023-05-02T07:05:17.552Z,84.0299
2023-05-02T07:06:19.648Z,83.4258
2023-05-02T07:07:21.732Z,83.8787
2023-05-02T07:08:23.858Z,82.9144
2023-05-02T07:09:25.982Z,83.1571
2023-05-02T07:10:28.038Z,80.6824
2023-05-02T07:11:30.060Z,80.6118
2023-05-02T07:12:32.170Z,80.0896
2023-05-02T07:13:34.205Z,79.5574
2023-05-02T07:14:36.263Z,80.3667
2023-05-02T07:15:38.331Z,81.1592
2023-05-02T07:16:40.514Z,81.6255
2023-05-02T07:17:42.644Z,84.3160
2023-05-02T07:18:44.701Z,84.3825
2023-05-02T07:19:46.770Z,82.5675
2023-05-02T07:20:48.834Z,82.1039
2023-05-02T07:21:50.894Z,82.6253
2023-05-02T07:22:52.927Z,82.0119
2023-05-02T07:23:54.975Z,83.3238
2023-05-02T07:24:57.178Z,83.5517
2023-05-02T07:25:59.219Z,82.7246
2023-05-02T07:27:01.706Z,81.3078
2023-05-02T07:28:03.803Z,80.4176
2023-05-02T07:29:05.888Z,79.0170
2023-05-02T07:30:08.098Z,77.5288
2023-05-02T07:31:10.183Z,78.6252
2023-05-02T07:32:12.284Z,77.5175
2023-05-02T07:33:14.331Z,82.3838
2023-05-02T07:34:16.503Z,82.1976
2023-05-02T07:35:18.555Z,80.1373
2023-05-02T07:36:20.595Z,76.4192
2023-05-02T07:37:22.705Z,77.7194
2023-05-02T07:38:24.796Z,77.3627
2023-05-02T07:39:26.832Z,80.2627
2023-05-02T07:40:28.900Z,77.9864
2023-05-02T07:41:30.958Z,78.8797
2023-05-02T07:42:33.038Z,79.6665
2023-05-02T07:43:35.100Z,76.7348
2023-05-02T07:44:37.181Z,78.1635
2023-05-02T07:45:39.243Z,78.6946
2023-05-02T07:46:41.410Z,79.5525
2023-05-02T07:47:43.579Z,78.4994
2023-05-02T07:48:45.700Z,78.9103
2023-05-02T07:49:47.759Z,80.3996
2023-05-02T07:50:49.856Z,81.2439
2023-05-02T07:51:51.919Z,80.2324
2023-05-02T07:52:54.016Z,81.2094
2023-05-02T07:53:56.097Z,82.3901
2023-05-02T07:54:58.178Z,82.1988
2023-05-02T07:56:00.261Z,81.4674
2023-05-02T07:57:02.409Z,81.2175
2023-05-02T07:58:04.479Z,79.9146
2023-05-02T07:59:06.522Z,80.6339
2023-05-02T08:00:10.240Z,80.4511
2023-05-02T08:01:16.701Z,79.0670
2023-05-02T08:02:18.843Z,76.8463
2023-05-02T08:03:20.997Z,77.3205
2023-05-02T08:04:23.356Z,77.0075
2023-05-02T08:05:25.450Z,76.9585
2023-05-02T08:06:27.536Z,77.7478
2023-05-02T08:07:29.638Z,77.5517
2023-05-02T08:08:31.733Z,78.6933
2023-05-02T08:09:33.805Z,79.4205
2023-05-02T08:10:35.898Z,80.2335
2023-05-02T08:11:37.989Z,81.2056
2023-05-02T08:12:40.105Z,78.6411
2023-05-02T08:13:42.171Z,77.6594
2023-05-02T08:14:44.252Z,79.1870
2023-05-02T08:15:46.399Z,77.8701
2023-05-02T08:16:48.541Z,77.8121
2023-05-02T08:17:50.906Z,78.6487
2023-05-02T08:18:52.985Z,79.1825
2023-05-02T08:19:55.076Z,77.3103
2023-05-02T08:20:57.137Z,76.8965
2023-05-02T08:21:59.265Z,77.1279
2023-05-02T08:23:01.615Z,75.9222
2023-05-02T08:25:04.262Z,74.5731
2023-05-02T08:26:06.351Z,71.9418
2023-05-02T08:27:08.424Z,73.3349
2023-05-02T08:28:10.522Z,72.3936
2023-05-02T08:29:12.637Z,73.0035
2023-05-02T08:30:14.784Z,74.1076
2023-05-02T08:31:16.938Z,73.4394
2023-05-02T08:32:18.964Z,74.4039
2023-05-02T08:33:21.127Z,74.6589
2023-05-02T08:34:23.158Z,72.9918
2023-05-02T08:35:25.241Z,74.6177
2023-05-02T08:36:27.294Z,74.0245
2023-05-02T08:37:29.384Z,73.8862
2023-05-02T08:38:31.449Z,72.4936
2023-05-02T08:39:33.501Z,73.0366
2023-05-02T08:40:42.174Z,71.3421
2023-05-02T08:41:36.283Z,70.4047
2023-05-02T08:42:38.362Z,70.3778
2023-05-02T08:43:40.440Z,69.6406
2023-05-02T08:44:42.521Z,69.2978
2023-05-02T08:45:44.717Z,69.4110
2023-05-02T08:46:46.852Z,69.2816
2023-05-02T08:47:49.258Z,68.6660
2023-05-02T08:48:51.326Z,69.9268
2023-05-02T08:49:53.479Z,72.6254
2023-05-02T08:50:55.544Z,73.8590
2023-05-02T08:51:57.663Z,72.4883
2023-05-02T08:52:59.736Z,69.9627
2023-05-02T08:54:01.794Z,68.4063
2023-05-02T08:55:04.065Z,68.9002
2023-05-02T08:56:06.452Z,69.8938
2023-05-02T08:57:08.766Z,67.7750
2023-05-02T08:58:10.867Z,63.6982
2023-05-02T08:59:12.972Z,60.5653
2023-05-02T09:00:15.063Z,63.2547
2023-05-02T09:01:17.188Z,67.2129
2023-05-02T09:02:19.261Z,66.7303
2023-05-02T09:03:23.376Z,64.6128
2023-05-02T09:04:22.240Z,63.4779
2023-05-02T09:05:24.339Z,59.2807
2023-05-02T09:06:26.480Z,59.3668
2023-05-02T09:07:28.566Z,63.1158
2023-05-02T09:08:30.632Z,61.1455
2023-05-02T09:09:39.778Z,58.6576
2023-05-02T09:10:34.553Z,59.4555
2023-05-02T09:11:36.391Z,58.7341
2023-05-02T09:12:38.443Z,61.0943
2023-05-02T09:13:40.524Z,62.8515
2023-05-02T09:15:45.938Z,63.9338
2023-05-02T09:16:48.067Z,61.7741
2023-05-02T09:17:50.137Z,62.2827
2023-05-02T09:18:52.180Z,61.1751
2023-05-02T09:19:54.181Z,61.5582
2023-05-02T09:20:56.238Z,62.2102
2023-05-02T09:21:58.314Z,61.6632
2023-05-02T09:23:03.875Z,60.1888
2023-05-02T09:24:05.934Z,57.0995
2023-05-02T09:25:08.099Z,57.4443
2023-05-02T09:26:10.168Z,59.2817
2023-05-02T09:27:12.284Z,58.2455
2023-05-02T09:28:14.309Z,58.1604
2023-05-02T09:29:23.894Z,56.9218
2023-05-02T09:30:25.983Z,56.7067
2023-05-02T09:31:49.792Z,55.1119
2023-05-02T09:32:34.384Z,57.9533
2023-05-02T09:33:36.571Z,56.3425
2023-05-02T09:34:38.620Z,55.9910
2023-05-02T09:35:40.719Z,52.3000
2023-05-02T09:36:42.792Z,52.5299
2023-05-02T09:37:44.854Z,52.5301
2023-05-02T09:38:46.932Z,56.1404
2023-05-02T09:39:48.915Z,59.9258
2023-05-02T09:40:50.959Z,61.1593
2023-05-02T09:41:53.031Z,61.0209
2023-05-02T09:42:54.939Z,58.1933
2023-05-02T09:43:57.023Z,60.0147
2023-05-02T09:44:59.276Z,61.5362
2023-05-02T09:46:01.652Z,60.8159
2023-05-02T09:47:03.695Z,61.6055
2023-05-02T09:48:05.837Z,60.7365
2023-05-02T09:49:07.883Z,60.1356
2023-05-02T09:50:09.939Z,57.2469
2023-05-02T09:51:12.030Z,60.0228
2023-05-02T09:52:14.131Z,59.1122
2023-05-02T09:53:16.275Z,55.4814
2023-05-02T09:54:18.361Z,54.6202
2023-05-02T09:55:20.716Z,55.1203
2023-05-02T09:56:23.966Z,53.2501
2023-05-02T09:57:23.243Z,56.6288
2023-05-02T09:58:25.371Z,58.5152
2023-05-02T09:59:27.451Z,57.0849
2023-05-02T10:00:29.540Z,55.4333
2023-05-02T10:01:31.634Z,52.6787
2023-05-02T10:03:33.825Z,52.4830
2023-05-02T10:04:36.011Z,50.4029
2023-05-02T10:05:38.096Z,49.8559
2023-05-02T10:06:40.303Z,49.6390
2023-05-02T10:07:42.401Z,51.4062
2023-05-02T10:08:44.467Z,53.9896
2023-05-02T10:09:46.605Z,54.2926
2023-05-02T10:10:48.959Z,52.3517
2023-05-02T10:11:51.032Z,51.0862
2023-05-02T10:12:53.132Z,50.8965
2023-05-02T10:14:58.904Z,55.3320
2023-05-02T10:16:01.039Z,54.9455
2023-05-02T10:17:03.164Z,58.3326
2023-05-02T10:19:08.523Z,56.4053
2023-05-02T10:20:10.595Z,55.0278
2023-05-02T10:21:12.639Z,58.2068
2023-05-02T10:22:14.721Z,57.6124
2023-05-02T10:23:16.865Z,57.9235
2023-05-02T10:24:18.930Z,58.3059
2023-05-02T10:25:21.002Z,57.8137
2023-05-02T10:26:23.098Z,59.9119
2023-05-02T10:27:25.155Z,58.9164
2023-05-02T10:28:27.252Z,59.3599
2023-05-02T10:29:29.311Z,60.9220
2023-05-02T10:30:30.275Z,61.4013
2023-05-02T10:31:32.412Z,61.1742
2023-05-02T10:32:34.888Z,60.6464
2023-05-02T10:33:36.957Z,61.1170
2023-05-02T10:34:39.104Z,58.6831
2023-05-02T10:35:39.467Z,59.4310
2023-05-02T10:37:45.048Z,61.6570
2023-05-02T10:38:47.060Z,61.4266
2023-05-02T10:39:49.144Z,60.1827
2023-05-02T10:40:51.171Z,59.9417
2023-05-02T10:41:53.235Z,60.2432
2023-05-02T10:42:55.299Z,59.5164
2023-05-02T10:43:57.132Z,60.2647
2023-05-02T10:44:59.467Z,59.2702
2023-05-02T10:46:01.657Z,60.5631
2023-05-02T10:47:03.790Z,60.3110
2023-05-02T10:48:04.390Z,59.2330
2023-05-02T10:49:06.463Z,60.7446
2023-05-02T10:50:08.589Z,60.8867
2023-05-02T10:51:10.640Z,60.7218
2023-05-02T10:52:12.743Z,61.5932
2023-05-02T10:53:14.806Z,61.2266
2023-05-02T10:54:16.781Z,62.5591
2023-05-02T10:55:18.841Z,63.4925
2023-05-02T10:56:20.892Z,62.9805
2023-05-02T10:57:22.989Z,61.3298
2023-05-02T10:58:25.098Z,61.1407
2023-05-02T10:59:27.146Z,61.4679
2023-05-02T11:00:27.205Z,62.6449
2023-05-02T11:01:29.440Z,61.3381
2023-05-02T11:02:31.751Z,61.5084
2023-05-02T11:03:33.909Z,61.7912
2023-05-02T11:04:35.778Z,61.2319
2023-05-02T11:05:37.840Z,59.6847
2023-05-02T11:06:40.238Z,60.3063
2023-05-02T11:07:42.274Z,61.2671
2023-05-02T11:08:44.350Z,59.9514
2023-05-02T11:09:46.671Z,60.2723
2023-05-02T11:10:48.749Z,61.6328
2023-05-02T11:11:58.325Z,62.4189
2023-05-02T11:12:53.458Z,62.9228
2023-05-02T11:13:55.523Z,63.1122
2023-05-02T11:14:57.640Z,61.9274
2023-05-02T11:16:00.232Z,60.7283
2023-05-02T11:17:02.287Z,60.7222
2023-05-02T11:18:12.124Z,59.6597
2023-05-02T11:19:06.956Z,57.8547
2023-05-02T11:20:09.048Z,58.1937
2023-05-02T11:21:11.115Z,59.1587
2023-05-02T11:22:13.248Z,60.9161
2023-05-02T11:23:15.279Z,59.0528
2023-05-02T11:24:17.382Z,57.4515
2023-05-02T11:25:19.465Z,56.6650
2023-05-02T11:26:21.557Z,58.7304
2023-05-02T11:27:23.655Z,58.5211
2023-05-02T11:28:25.731Z,58.9046
2023-05-02T11:29:27.828Z,58.2163
2023-05-02T11:30:29.972Z,58.9728
2023-05-02T11:31:32.092Z,56.6383
2023-05-02T11:32:34.419Z,57.2033
2023-05-02T11:33:36.509Z,56.1099
2023-05-02T11:34:38.598Z,60.0022
2023-05-02T11:35:44.563Z,59.9914
2023-05-02T11:36:54.309Z,59.0439
2023-05-02T11:37:56.386Z,56.7720
2023-05-02T11:38:58.488Z,56.9565
2023-05-02T11:40:00.588Z,58.4450
2023-05-02T11:41:02.689Z,55.3247
2023-05-02T11:42:04.774Z,50.8711
2023-05-02T11:43:06.810Z,49.5784
2023-05-02T11:44:08.951Z,54.0817
2023-05-02T11:45:11.010Z,56.1806
2023-05-02T11:46:13.108Z,55.5936
2023-05-02T11:47:15.143Z,51.5644
2023-05-02T11:48:17.249Z,47.6729
2023-05-02T11:49:19.326Z,48.0785
2023-05-02T11:50:21.420Z,46.6808
2023-05-02T11:51:23.509Z,46.0935
2023-05-02T11:52:26.242Z,42.3021
2023-05-02T11:53:28.283Z,43.5405
2023-05-02T11:54:30.618Z,44.2727
2023-05-02T11:55:36.608Z,45.4362
2023-05-02T11:56:38.679Z,47.0639
2023-05-02T11:58:40.997Z,49.0271
2023-05-02T12:00:43.600Z,53.0863
2023-05-02T12:01:45.678Z,51.6188
2023-05-02T12:02:47.812Z,49.1989
2023-05-02T12:03:50.007Z,49.3218
2023-05-02T12:04:52.127Z,50.2118
2023-05-02T12:05:54.287Z,49.6845
2023-05-02T12:06:56.445Z,48.8243
2023-05-02T12:07:58.585Z,48.0490
2023-05-02T12:09:00.682Z,49.8772
2023-05-02T12:10:03.069Z,49.6621
2023-05-02T12:11:05.192Z,51.9323
2023-05-02T12:13:10.168Z,51.0050
2023-05-02T12:14:10.288Z,46.2784
2023-05-02T12:15:12.449Z,46.4099
2023-05-02T12:16:14.671Z,44.6763
2023-05-02T12:17:16.838Z,46.6085
2023-05-02T12:18:20.760Z,52.7214
2023-05-02T12:19:20.486Z,51.2661
2023-05-02T12:20:22.609Z,51.3302
2023-05-02T12:21:24.726Z,49.8861
2023-05-02T12:22:26.857Z,52.4295
2023-05-02T12:23:28.956Z,52.8161
2023-05-02T12:24:31.100Z,51.9554
2023-05-02T12:25:33.194Z,54.4310
2023-05-02T12:26:35.313Z,58.0442
2023-05-02T12:27:57.419Z,61.5016
2023-05-02T12:28:52.267Z,66.5516
2023-05-02T12:29:54.378Z,68.2625
2023-05-02T12:30:56.511Z,70.6785
2023-05-02T12:31:58.725Z,71.4508
2023-05-02T12:33:00.898Z,70.9354
2023-05-02T12:34:03.009Z,72.5128
2023-05-02T12:35:05.120Z,73.3660
2023-05-02T12:36:07.200Z,74.2916
2023-05-02T12:37:09.363Z,73.5277
2023-05-02T12:38:11.844Z,74.5094
2023-05-02T12:39:13.725Z,75.1211
2023-05-02T12:40:15.829Z,75.7913